Time;durP1;ratioP1;P1;durP2;ratioP2;P2;SDS_P1;SDS_P2;PMS_P1;PMS_P2;Temp;Humidity;BMP_temperature;BMP_pressure;BME280_temperature;BME280_humidity;BME280_pressure;Samples;Min_cycle;Max_cycle;Signal;HPM_P1;HPM_P2
2022/11/26 00:01:43;;;;;;;0.67;0.67;;;;;;;6.08;95.29;99962.34;5074295;28;20192;-64
2022/11/26 00:04:10;;;;;;;0.70;0.70;;;;;;;6.05;95.51;99959.81;5073979;28;20207;-65
2022/11/26 00:06:40;;;;;;;0.83;0.83;;;;;;;5.94;95.32;99951.38;5074566;28;20241;-64
2022/11/26 00:09:14;;;;;;;0.67;0.67;;;;;;;5.91;95.56;99946.31;5074097;28;20207;-64
2022/11/26 00:11:41;;;;;;;0.60;0.60;;;;;;;5.95;95.46;99952.19;5074177;28;20203;-65
2022/11/26 00:14:13;;;;;;;0.60;0.60;;;;;;;5.90;95.53;99954.78;5073910;28;20199;-64
2022/11/26 00:16:41;;;;;;;0.50;0.50;;;;;;;5.90;95.98;99948.84;5073947;28;20208;-64
2022/11/26 00:19:08;;;;;;;0.70;0.70;;;;;;;5.88;95.56;99951.38;5074009;28;20238;-65
2022/11/26 00:21:37;;;;;;;1.47;0.97;;;;;;;5.91;95.32;99956.47;5073789;28;20196;-64
2022/11/26 00:24:06;;;;;;;0.60;0.60;;;;;;;5.91;95.68;99959.03;5074217;28;20556;-64
2022/11/26 00:26:33;;;;;;;0.60;0.60;;;;;;;5.93;95.62;99964.94;5073955;28;20192;-65
2022/11/26 00:29:00;;;;;;;0.60;0.60;;;;;;;5.91;95.48;99964.13;5074092;28;20192;-64
2022/11/26 00:31:28;;;;;;;0.50;0.50;;;;;;;5.93;95.13;99964.09;5073763;28;20200;-65
2022/11/26 00:33:56;;;;;;;0.60;0.60;;;;;;;5.93;95.38;99964.94;5073617;28;20211;-64
2022/11/26 00:36:26;;;;;;;0.60;0.60;;;;;;;5.94;95.54;99961.56;5073838;28;20273;-65
2022/11/26 00:38:56;;;;;;;0.70;0.70;;;;;;;6.00;95.21;99964.09;5073378;28;20200;-65
2022/11/26 00:41:25;;;;;;;0.70;0.70;;;;;;;5.99;94.45;99954.75;5070917;28;20667;-65
2022/11/26 00:43:52;;;;;;;0.83;0.83;;;;;;;6.06;94.25;99965.75;5072973;28;20196;-65
2022/11/26 00:46:21;;;;;;;0.60;0.60;;;;;;;6.13;93.96;99973.38;5073582;28;20208;-64
2022/11/26 00:48:48;;;;;;;0.60;0.60;;;;;;;6.22;94.08;99978.44;5073536;28;20258;-64
2022/11/26 00:51:18;;;;;;;0.63;0.63;;;;;;;6.26;92.89;99977.56;5073356;28;20235;-65
2022/11/26 00:53:47;;;;;;;0.90;0.90;;;;;;;6.28;93.22;99970.78;5073140;28;20204;-65
2022/11/26 00:56:17;;;;;;;0.67;0.67;;;;;;;6.43;91.80;99976.66;5073490;28;20673;-64
2022/11/26 00:58:44;;;;;;;0.60;0.60;;;;;;;6.49;91.58;99976.63;5073303;28;20269;-65
2022/11/26 01:01:12;;;;;;;0.70;0.70;;;;;;;6.50;91.43;99980.84;5073243;28;20204;-65
2022/11/26 01:03:41;;;;;;;0.70;0.70;;;;;;;6.56;90.72;99984.22;5073029;28;20575;-64
2022/11/26 01:06:17;;;;;;;0.73;0.73;;;;;;;6.62;90.66;99978.28;5073475;28;20203;-64
2022/11/26 01:08:45;;;;;;;0.63;0.63;;;;;;;6.61;90.45;99959.59;5071707;28;20199;-65
2022/11/26 01:11:14;;;;;;;0.63;0.63;;;;;;;6.69;89.53;99969.72;5073159;28;20207;-65
2022/11/26 01:13:41;;;;;;;0.50;0.50;;;;;;;6.71;89.19;99973.13;5069328;28;20232;-65
2022/11/26 01:16:18;;;;;;;0.60;0.60;;;;;;;6.71;88.63;99962.94;5066357;28;20200;-64
2022/11/26 01:18:45;;;;;;;0.83;0.83;;;;;;;6.55;88.92;99935.84;5071193;28;20195;-65
2022/11/26 01:21:13;;;;;;;0.80;0.80;;;;;;;6.72;88.62;99972.28;5071929;28;20671;-64
2022/11/26 01:23:41;;;;;;;0.70;0.70;;;;;;;6.61;88.51;99959.59;5072635;28;20234;-65
2022/11/26 01:26:15;;;;;;;0.53;0.53;;;;;;;6.71;88.02;99966.31;5072823;28;20203;-64
2022/11/26 01:28:42;;;;;;;0.43;0.43;;;;;;;6.74;88.31;99973.09;5073308;28;20587;-65
2022/11/26 01:31:16;;;;;;;0.60;0.60;;;;;;;6.75;87.98;99969.72;5072541;28;20253;-64
2022/11/26 01:33:43;;;;;;;0.60;0.60;;;;;;;6.66;87.76;99969.72;5072706;28;20253;-65
2022/11/26 01:36:25;;;;;;;0.83;0.83;;;;;;;6.68;87.93;99973.13;5071478;28;20649;-65
2022/11/26 01:38:54;;;;;;;0.70;0.70;;;;;;;6.62;87.85;99961.28;5072425;28;20211;-64
2022/11/26 01:41:35;;;;;;;0.70;0.70;;;;;;;6.66;88.48;99973.13;5072571;28;20200;-65
2022/11/26 01:44:04;;;;;;;0.70;0.70;;;;;;;6.66;87.84;99967.19;5070876;28;20203;-65
2022/11/26 01:46:36;;;;;;;1.37;1.37;;;;;;;6.66;88.29;99979.91;5072151;28;20200;-65
2022/11/26 01:49:25;;;;;;;0.80;0.80;;;;;;;6.60;88.04;99967.22;5072225;28;20204;-65
2022/11/26 01:52:01;;;;;;;0.60;0.60;;;;;;;6.54;87.80;99964.72;5067910;28;20231;-65
2022/11/26 01:54:29;;;;;;;0.60;0.60;;;;;;;6.54;87.87;99974.91;5071846;28;20605;-64
2022/11/26 01:57:01;;;;;;;0.70;0.70;;;;;;;6.54;88.11;99974.91;5071526;28;20676;-65
2022/11/26 01:59:33;;;;;;;0.60;0.60;;;;;;;6.50;88.36;99970.66;5072026;28;20200;-65
2022/11/26 02:02:00;;;;;;;0.60;0.60;;;;;;;6.52;87.96;99977.47;5071879;28;20580;-65
2022/11/26 02:04:29;;;;;;;0.77;0.77;;;;;;;6.45;88.56;99975.78;5072257;28;20194;-65
2022/11/26 02:06:57;;;;;;;0.70;0.70;;;;;;;6.43;88.13;99981.75;5072034;28;20219;-65
2022/11/26 02:09:24;;;;;;;0.50;0.50;;;;;;;6.40;87.62;99980.03;5072038;28;20659;-65
2022/11/26 02:11:53;;;;;;;0.73;0.73;;;;;;;6.34;87.91;99993.66;5071700;28;20255;-65
2022/11/26 02:14:23;;;;;;;0.50;0.50;;;;;;;6.25;88.49;99988.59;5069875;28;20207;-65
2022/11/26 02:17:01;;;;;;;0.60;0.60;;;;;;;6.24;88.74;100002.19;5063722;28;20192;-65
2022/11/26 02:20:02;;;;;;;0.70;0.70;;;;;;;6.15;88.23;99991.16;5071574;28;20225;-65
2022/11/26 02:23:10;;;;;;;0.60;0.60;;;;;;;6.00;87.76;99987.00;5069691;28;20196;-64
2022/11/26 02:25:59;;;;;;;0.80;0.80;;;;;;;5.97;88.20;99997.19;5035242;28;20192;-65
2022/11/26 02:28:47;;;;;;;0.67;0.67;;;;;;;5.78;87.46;99970.03;5068355;28;20187;-64
2022/11/26 02:31:21;;;;;;;0.60;0.60;;;;;;;5.85;87.66;99999.69;5069461;28;20200;-64
2022/11/26 02:33:55;;;;;;;0.70;0.70;;;;;;;5.85;88.56;100001.41;5068662;28;20241;-65
2022/11/26 02:36:27;;;;;;;0.73;0.73;;;;;;;5.84;88.95;100000.56;5071405;28;20203;-64
2022/11/26 02:38:54;;;;;;;0.70;0.70;;;;;;;5.83;89.03;100001.41;5068991;28;20219;-65
2022/11/26 02:41:21;;;;;;;0.67;0.67;;;;;;;5.74;89.53;99998.88;5071143;28;20210;-64
2022/11/26 02:43:48;;;;;;;0.60;0.60;;;;;;;5.84;88.76;100003.09;5071458;28;20622;-64
2022/11/26 02:46:19;;;;;;;0.60;0.60;;;;;;;5.85;89.12;100007.31;5069856;28;20203;-64
2022/11/26 02:48:51;;;;;;;0.60;0.60;;;;;;;5.85;89.05;100007.31;5071614;28;20196;-64
2022/11/26 02:51:22;;;;;;;0.50;0.50;;;;;;;5.83;89.04;100003.94;5069593;28;20224;-65
2022/11/26 02:53:51;;;;;;;0.87;0.87;;;;;;;5.81;89.05;100008.19;5071335;28;20729;-65
2022/11/26 02:56:24;;;;;;;0.53;0.53;;;;;;;5.82;89.10;100002.22;5071170;28;20258;-65
2022/11/26 02:58:53;;;;;;;0.70;0.70;;;;;;;5.81;89.16;100005.66;5070014;28;20220;-65
2022/11/26 03:01:28;;;;;;;0.70;0.70;;;;;;;5.77;89.60;99998.88;5071043;28;20203;-65
2022/11/26 03:03:57;;;;;;;0.60;0.60;;;;;;;5.77;89.53;100014.13;5071181;28;20294;-64
2022/11/26 03:06:28;;;;;;;0.80;0.80;;;;;;;5.76;89.04;100013.28;5069442;28;20325;-64
2022/11/26 03:08:55;;;;;;;0.70;0.70;;;;;;;5.73;89.49;100012.44;5071340;28;20268;-64
2022/11/26 03:11:22;;;;;;;0.50;0.50;;;;;;;5.65;89.64;100007.38;5071151;28;20199;-64
2022/11/26 03:13:50;;;;;;;0.80;0.80;;;;;;;5.39;89.37;99965.00;5071227;28;20200;-64
2022/11/26 03:16:17;;;;;;;0.60;0.60;;;;;;;5.64;89.23;100017.53;5071095;28;20188;-64
2022/11/26 03:18:45;;;;;;;0.77;0.77;;;;;;;5.62;89.33;100014.16;5070870;28;20600;-65
2022/11/26 03:21:11;;;;;;;0.70;0.70;;;;;;;5.62;89.19;100016.69;5071465;28;20281;-64
2022/11/26 03:23:38;;;;;;;0.63;0.63;;;;;;;5.55;89.27;100023.47;5071028;28;20196;-65
2022/11/26 03:26:05;;;;;;;0.77;0.77;;;;;;;5.54;89.31;100026.00;5071097;28;20214;-65
2022/11/26 03:28:32;;;;;;;0.70;0.70;;;;;;;5.54;89.55;100020.91;5070915;28;20199;-64
2022/11/26 03:30:59;;;;;;;0.70;0.70;;;;;;;5.52;89.44;100023.47;5070908;28;20246;-64
2022/11/26 03:33:25;;;;;;;0.73;0.73;;;;;;;5.56;89.70;100037.88;5071213;28;20200;-64
2022/11/26 03:35:53;;;;;;;0.90;0.90;;;;;;;5.58;89.37;100046.38;5070822;28;20227;-64
2022/11/26 03:38:21;;;;;;;0.87;0.87;;;;;;;5.53;89.59;100044.63;5070788;28;20269;-64
2022/11/26 03:40:56;;;;;;;0.70;0.70;;;;;;;5.45;89.48;100051.44;5070945;28;20295;-64
2022/11/26 03:43:22;;;;;;;0.60;0.60;;;;;;;5.33;89.95;100047.19;5070937;28;20196;-64
2022/11/26 03:45:49;;;;;;;0.60;0.60;;;;;;;5.36;90.35;100062.44;5068002;28;20286;-64
2022/11/26 03:48:16;;;;;;;0.67;0.67;;;;;;;5.37;90.64;100064.13;5071202;28;20200;-64
2022/11/26 03:50:43;;;;;;;0.60;0.60;;;;;;;5.32;90.50;100070.91;5070677;28;20645;-64
2022/11/26 03:53:11;;;;;;;0.73;0.73;;;;;;;5.28;90.87;100070.06;5070904;28;20207;-63
2022/11/26 03:55:38;;;;;;;0.70;0.70;;;;;;;5.27;90.74;100068.34;5070774;28;20192;-64
2022/11/26 03:58:05;;;;;;;1.17;1.13;;;;;;;5.30;91.04;100078.53;5070754;28;20714;-64
2022/11/26 04:00:32;;;;;;;0.53;0.53;;;;;;;5.24;90.50;100081.06;5071029;28;20668;-64
2022/11/26 04:03:05;;;;;;;0.60;0.60;;;;;;;5.24;90.58;100088.69;5070865;28;20196;-64
2022/11/26 04:05:32;;;;;;;0.80;0.80;;;;;;;5.26;91.00;100087.00;5070808;28;20219;-64
2022/11/26 04:07:59;;;;;;;0.80;0.80;;;;;;;5.27;90.74;100093.78;5070614;28;20656;-64
2022/11/26 04:10:27;;;;;;;0.77;0.77;;;;;;;5.29;90.48;100097.19;5070987;28;20251;-64
2022/11/26 04:12:54;;;;;;;0.60;0.60;;;;;;;5.33;90.34;100097.19;5070348;28;20200;-64
2022/11/26 04:15:21;;;;;;;0.50;0.50;;;;;;;5.32;89.89;100101.41;5070332;28;20204;-64
2022/11/26 04:17:48;;;;;;;0.60;0.60;;;;;;;5.34;89.11;100096.31;5071859;28;20211;-64
2022/11/26 04:20:15;;;;;;;0.57;0.57;;;;;;;5.30;88.97;100098.84;5074021;28;20265;-64
2022/11/26 04:22:41;;;;;;;0.73;0.73;;;;;;;5.26;88.98;100099.72;5074281;28;20228;-64
2022/11/26 04:25:09;;;;;;;0.50;0.50;;;;;;;5.25;88.81;100105.63;5073866;28;20196;-64
2022/11/26 04:27:37;;;;;;;0.50;0.50;;;;;;;5.19;87.80;100098.00;5074187;28;20196;-64
2022/11/26 04:30:05;;;;;;;0.73;0.73;;;;;;;5.12;87.67;100103.91;5073818;28;20274;-64
2022/11/26 04:32:32;;;;;;;0.70;0.70;;;;;;;5.04;88.55;100105.56;5074032;28;20246;-64
2022/11/26 04:34:58;;;;;;;0.60;0.60;;;;;;;4.97;89.41;100115.72;5073953;28;20691;-64
2022/11/26 04:37:25;;;;;;;0.60;0.60;;;;;;;4.88;89.12;100113.97;5073716;28;20659;-64
2022/11/26 04:39:52;;;;;;;0.80;0.80;;;;;;;4.82;89.04;100091.09;5074153;28;20192;-64
2022/11/26 04:42:19;;;;;;;0.67;0.67;;;;;;;4.99;89.47;100117.41;5073620;28;20211;-64
2022/11/26 04:44:47;;;;;;;0.97;0.97;;;;;;;4.95;89.02;100125.84;5073908;28;20200;-64
2022/11/26 04:47:14;;;;;;;0.60;0.60;;;;;;;4.85;88.88;100124.13;5073629;28;20683;-64
2022/11/26 04:49:41;;;;;;;0.87;0.87;;;;;;;4.84;89.18;100126.66;5073674;28;20200;-64
2022/11/26 04:52:08;;;;;;;4.17;1.50;;;;;;;4.76;90.04;100134.25;5073494;28;20232;-64
2022/11/26 04:54:34;;;;;;;0.60;0.60;;;;;;;4.71;89.53;100130.84;5073647;28;20614;-63
2022/11/26 04:57:01;;;;;;;0.60;0.60;;;;;;;4.75;89.67;100147.78;5073700;28;20196;-64
2022/11/26 04:59:28;;;;;;;0.80;0.80;;;;;;;4.67;89.57;100150.28;5073524;28;20587;-64
2022/11/26 05:01:58;;;;;;;0.50;0.50;;;;;;;4.48;89.96;100147.63;5073582;28;20632;-64
2022/11/26 05:04:25;;;;;;;0.70;0.70;;;;;;;4.55;90.28;100154.47;5073383;28;20212;-64
2022/11/26 05:06:52;;;;;;;0.90;0.90;;;;;;;4.57;90.78;100173.06;5073111;28;20198;-64
2022/11/26 05:09:18;;;;;;;0.60;0.60;;;;;;;4.56;90.94;100171.38;5073372;28;20254;-64
2022/11/26 05:11:45;;;;;;;0.70;0.70;;;;;;;4.54;91.42;100167.97;5073054;28;20200;-63
2022/11/26 05:14:12;;;;;;;0.60;0.60;;;;;;;4.53;91.64;100166.28;5073599;28;20199;-63
2022/11/26 05:16:39;;;;;;;0.67;0.67;;;;;;;4.56;91.84;100176.44;5072961;28;20196;-64
2022/11/26 05:19:07;;;;;;;0.60;0.60;;;;;;;4.59;92.33;100186.63;5073405;28;20681;-64
2022/11/26 05:21:34;;;;;;;0.70;0.70;;;;;;;4.59;92.86;100184.09;5072968;28;20200;-64
2022/11/26 05:24:00;;;;;;;0.70;0.70;;;;;;;4.57;93.38;100188.31;5073319;28;20580;-64
2022/11/26 05:26:27;;;;;;;0.70;0.70;;;;;;;4.51;93.51;100178.97;5073041;28;20223;-64
2022/11/26 05:28:54;;;;;;;0.60;0.60;;;;;;;4.53;93.47;100182.34;5072103;28;20199;-64
2022/11/26 05:31:21;;;;;;;0.70;0.70;;;;;;;4.39;94.18;100172.97;5066974;28;20215;-63
2022/11/26 05:33:48;;;;;;;0.60;0.60;;;;;;;4.44;94.84;100176.38;5072240;28;20207;-63
2022/11/26 05:36:16;;;;;;;0.60;0.60;;;;;;;4.35;95.14;100176.31;5072097;28;20219;-64
2022/11/26 05:38:43;;;;;;;0.60;0.60;;;;;;;4.47;95.21;100195.03;5072050;28;20216;-63
2022/11/26 05:41:09;;;;;;;0.70;0.70;;;;;;;4.54;95.10;100193.38;5072203;28;20196;-63
2022/11/26 05:43:36;;;;;;;0.50;0.50;;;;;;;4.52;95.02;100188.31;5068371;28;20200;-63
2022/11/26 05:46:05;;;;;;;0.60;0.60;;;;;;;4.55;94.64;100197.63;5072496;28;20560;-63
2022/11/26 05:48:32;;;;;;;0.70;0.70;;;;;;;4.50;94.02;100195.03;5072650;28;20579;-63
2022/11/26 05:50:59;;;;;;;0.60;0.60;;;;;;;4.53;93.66;100186.59;5072196;28;20224;-63
2022/11/26 05:53:29;;;;;;;0.70;0.70;;;;;;;4.42;93.25;100178.06;5072707;28;20196;-63
2022/11/26 05:55:56;;;;;;;0.60;0.60;;;;;;;4.41;92.60;100171.28;5072548;28;20188;-63
2022/11/26 05:58:23;;;;;;;0.67;0.67;;;;;;;4.47;92.45;100181.47;5072361;28;20707;-63
2022/11/26 06:00:49;;;;;;;0.60;0.60;;;;;;;4.55;92.36;100200.16;5072594;28;20192;-63
2022/11/26 06:03:16;;;;;;;0.50;0.50;;;;;;;4.56;92.01;100201.84;5064004;28;20196;-63
2022/11/26 06:05:43;;;;;;;0.80;0.80;;;;;;;4.59;92.03;100206.94;5072105;28;20215;-63
2022/11/26 06:08:10;;;;;;;2.30;2.20;;;;;;;4.60;92.23;100208.66;5071651;28;20187;-63
2022/11/26 06:10:38;;;;;;;0.70;0.70;;;;;;;4.61;92.70;100211.22;5071665;28;20200;-63
2022/11/26 06:13:05;;;;;;;0.50;0.50;;;;;;;4.58;93.08;100218.81;5071976;28;20667;-63
2022/11/26 06:15:31;;;;;;;1.13;1.00;;;;;;;4.59;94.07;100217.94;5072208;28;20663;-63
2022/11/26 06:17:58;;;;;;;0.60;0.60;;;;;;;4.62;94.34;100214.59;5072071;28;20300;-63
2022/11/26 06:20:25;;;;;;;0.60;0.60;;;;;;;4.67;94.54;100212.94;5071938;28;20192;-63
2022/11/26 06:22:52;;;;;;;0.70;0.70;;;;;;;4.71;94.49;100217.19;5071868;28;20211;-63
2022/11/26 06:25:19;;;;;;;0.90;0.90;;;;;;;4.71;94.53;100214.66;5071556;28;20202;-63
2022/11/26 06:27:47;;;;;;;0.63;0.63;;;;;;;4.74;94.58;100214.69;5071741;28;20200;-63
2022/11/26 06:30:14;;;;;;;0.60;0.60;;;;;;;4.74;94.15;100222.28;5071318;28;20200;-63
2022/11/26 06:32:41;;;;;;;0.73;0.73;;;;;;;4.75;93.97;100231.59;5074651;28;20557;-63
2022/11/26 06:35:09;;;;;;;1.03;1.03;;;;;;;4.78;93.71;100235.00;5071828;28;20192;-63
2022/11/26 06:37:36;;;;;;;0.70;0.70;;;;;;;4.81;93.94;100234.19;5071814;28;20623;-64
2022/11/26 06:40:03;;;;;;;0.60;0.60;;;;;;;4.56;93.58;100206.91;5071321;28;20223;-63
2022/11/26 06:42:30;;;;;;;0.80;0.80;;;;;;;4.76;93.62;100230.75;5071327;28;20192;-63
2022/11/26 06:44:58;;;;;;;0.60;0.60;;;;;;;4.67;94.55;100230.72;5067299;28;20196;-63
2022/11/26 06:47:25;;;;;;;0.80;0.80;;;;;;;4.76;94.98;100241.78;5071557;28;20203;-64
2022/11/26 06:49:52;;;;;;;0.80;0.80;;;;;;;4.78;95.36;100241.81;5071501;28;20192;-63
2022/11/26 06:52:18;;;;;;;0.70;0.70;;;;;;;4.83;94.89;100240.13;5071297;28;20261;-64
2022/11/26 06:54:45;;;;;;;0.77;0.77;;;;;;;4.91;94.95;100235.94;5071439;28;20278;-63
2022/11/26 06:57:12;;;;;;;0.70;0.70;;;;;;;4.98;94.72;100241.91;5071173;28;20200;-63
2022/11/26 06:59:39;;;;;;;0.50;0.50;;;;;;;5.08;94.72;100244.50;5071163;28;20216;-63
2022/11/26 07:02:07;;;;;;;1.00;1.00;;;;;;;5.14;94.94;100243.69;5070079;28;20592;-63
2022/11/26 07:04:34;;;;;;;0.70;0.70;;;;;;;5.16;94.56;100237.78;5071296;28;20253;-64
2022/11/26 07:07:00;;;;;;;1.20;1.20;;;;;;;5.26;95.14;100247.16;5071506;28;20633;-64
2022/11/26 07:09:27;;;;;;;0.67;0.67;;;;;;;5.33;95.40;100248.03;5071307;28;20207;-63
2022/11/26 07:11:54;;;;;;;0.60;0.60;;;;;;;5.39;96.12;100244.66;5070898;28;20622;-64
2022/11/26 07:14:21;;;;;;;0.60;0.60;;;;;;;5.47;94.83;100243.84;5071373;28;20203;-64
2022/11/26 07:16:48;;;;;;;2.43;1.83;;;;;;;5.58;94.65;100251.50;5070644;28;20656;-64
2022/11/26 07:19:16;;;;;;;1.00;1.00;;;;;;;5.67;93.80;100243.91;5066963;28;20614;-63
2022/11/26 07:21:43;;;;;;;0.90;0.90;;;;;;;5.75;94.34;100240.53;5070967;28;20200;-63
2022/11/26 07:24:10;;;;;;;0.70;0.70;;;;;;;5.82;94.89;100241.41;5071007;28;20204;-64
2022/11/26 07:26:42;;;;;;;0.50;0.50;;;;;;;5.87;93.92;100239.75;5069537;28;20592;-60
2022/11/26 07:29:09;;;;;;;0.60;0.60;;;;;;;5.94;94.01;100241.47;5062675;28;20557;-63
2022/11/26 07:31:36;;;;;;;0.60;0.60;;;;;;;6.01;94.42;100245.72;5070917;28;20794;-64
2022/11/26 07:34:03;;;;;;;0.90;0.90;;;;;;;6.11;94.99;100242.34;5070525;28;20722;-66
2022/11/26 07:36:31;;;;;;;0.70;0.70;;;;;;;6.23;94.72;100237.28;5070196;28;20203;-65
2022/11/26 07:39:01;;;;;;;0.70;0.70;;;;;;;6.25;94.86;100221.97;5069875;28;20215;-65
2022/11/26 07:41:29;;;;;;;0.80;0.80;;;;;;;6.50;94.02;100238.94;5071145;28;20218;-63
2022/11/26 07:43:56;;;;;;;0.70;0.70;;;;;;;6.66;94.53;100232.13;5071373;28;20625;-62
2022/11/26 07:46:24;;;;;;;0.63;0.63;;;;;;;6.76;94.40;100231.28;5071025;28;20218;-65
2022/11/26 07:48:51;;;;;;;0.60;0.60;;;;;;;6.94;94.28;100221.06;5070774;28;20683;-64
2022/11/26 07:51:19;;;;;;;0.57;0.57;;;;;;;7.09;94.38;100230.38;5071005;28;20259;-64
2022/11/26 07:53:47;;;;;;;0.50;0.50;;;;;;;7.24;93.70;100236.25;5074108;28;20204;-64
2022/11/26 07:56:14;;;;;;;0.83;0.83;;;;;;;7.40;93.54;100235.34;5074052;28;20204;-65
2022/11/26 07:58:41;;;;;;;0.80;0.80;;;;;;;7.60;93.22;100234.41;5073701;28;20675;-65
2022/11/26 08:01:09;;;;;;;0.50;0.50;;;;;;;7.78;91.91;100234.34;5072930;28;20261;-65
2022/11/26 08:03:39;;;;;;;0.50;0.50;;;;;;;7.87;90.61;100239.38;5072562;28;20204;-64
2022/11/26 08:06:07;;;;;;;0.70;0.70;;;;;;;7.93;89.89;100234.25;5069539;28;20664;-65
2022/11/26 08:08:35;;;;;;;0.77;0.77;;;;;;;8.02;89.29;100239.28;5073062;28;20196;-65
2022/11/26 08:11:04;;;;;;;0.77;0.77;;;;;;;8.09;88.31;100240.94;5070900;28;20204;-65
2022/11/26 08:13:31;;;;;;;0.60;0.60;;;;;;;8.33;88.36;100245.06;5071316;28;20682;-65
2022/11/26 08:15:58;;;;;;;0.60;0.60;;;;;;;8.43;86.90;100246.69;5072839;28;20208;-65
2022/11/26 08:18:25;;;;;;;0.50;0.50;;;;;;;8.54;85.90;100246.59;5073159;28;20196;-65
2022/11/26 08:20:56;;;;;;;0.60;0.60;;;;;;;8.74;84.94;100250.66;5073653;28;20200;-66
2022/11/26 08:23:23;;;;;;;0.53;0.53;;;;;;;8.80;84.40;100247.19;5070785;28;20252;-64
2022/11/26 08:25:50;;;;;;;0.50;0.50;;;;;;;8.88;83.66;100251.41;5065340;28;20199;-64
2022/11/26 08:28:19;;;;;;;0.43;0.43;;;;;;;8.98;84.44;100248.75;5065457;28;20208;-63
2022/11/26 08:30:46;;;;;;;0.60;0.60;;;;;;;9.04;84.31;100249.53;5072920;28;20200;-64
2022/11/26 08:33:13;;;;;;;0.50;0.50;;;;;;;9.08;83.50;100238.38;5072113;28;20200;-64
2022/11/26 08:35:40;;;;;;;0.80;0.80;;;;;;;9.14;83.91;100233.22;5071831;28;20208;-63
2022/11/26 08:38:07;;;;;;;0.60;0.60;;;;;;;9.34;81.93;100246.63;5067341;28;20204;-63
2022/11/26 08:40:33;;;;;;;0.60;0.60;;;;;;;9.42;82.17;100249.94;5072024;28;20579;-63
2022/11/26 08:43:00;;;;;;;0.70;0.70;;;;;;;9.49;81.20;100254.13;5071040;28;20196;-63
2022/11/26 08:45:28;;;;;;;0.60;0.60;;;;;;;9.69;79.54;100253.03;5072132;28;20208;-63
2022/11/26 08:47:55;;;;;;;0.43;0.43;;;;;;;9.87;79.50;100252.78;5071396;28;20200;-63
2022/11/26 08:50:22;;;;;;;0.50;0.50;;;;;;;9.93;79.88;100250.97;5070487;28;20228;-64
2022/11/26 08:52:49;;;;;;;0.80;0.80;;;;;;;10.04;77.86;100250.84;5071203;28;20802;-64
2022/11/26 08:55:15;;;;;;;0.50;0.50;;;;;;;10.24;77.01;100253.97;5069413;28;20680;-63
2022/11/26 08:57:42;;;;;;;0.67;0.67;;;;;;;10.29;75.64;100251.34;5067189;28;20200;-63
2022/11/26 09:00:10;;;;;;;0.67;0.67;;;;;;;10.36;75.35;100253.78;5071764;28;20239;-64
2022/11/26 09:02:38;;;;;;;0.40;0.40;;;;;;;10.41;76.25;100254.56;5068954;28;20435;-62
2022/11/26 09:05:06;;;;;;;0.90;0.90;;;;;;;10.65;74.65;100258.44;5071905;28;20203;-63
2022/11/26 09:07:32;;;;;;;0.40;0.40;;;;;;;10.68;72.76;100260.97;5069563;28;20273;-63
2022/11/26 09:09:59;;;;;;;0.50;0.50;;;;;;;10.70;74.41;100258.34;5071134;28;20228;-63
2022/11/26 09:12:26;;;;;;;0.60;0.60;;;;;;;10.80;73.45;100259.88;5068132;28;20695;-63
2022/11/26 09:14:53;;;;;;;0.77;0.77;;;;;;;10.87;74.29;100264.03;5072438;28;20230;-63
2022/11/26 09:17:20;;;;;;;0.40;0.40;;;;;;;10.92;72.83;100257.94;5071208;28;20211;-62
2022/11/26 09:19:48;;;;;;;0.50;0.50;;;;;;;11.00;73.69;100257.81;5070005;28;20219;-63
2022/11/26 09:22:14;;;;;;;0.47;0.47;;;;;;;11.05;72.92;100250.88;5070532;28;20616;-63
2022/11/26 09:24:41;;;;;;;0.90;0.90;;;;;;;11.11;71.96;100249.94;5068896;28;20208;-62
2022/11/26 09:27:10;;;;;;;0.50;0.50;;;;;;;11.16;73.14;100238.69;5070992;28;20261;-63
2022/11/26 09:29:37;;;;;;;0.70;0.70;;;;;;;11.19;73.77;100237.78;5069593;28;20238;-62
2022/11/26 09:32:05;;;;;;;0.70;0.70;;;;;;;11.26;73.00;100235.09;5071526;28;20687;-63
2022/11/26 09:34:31;;;;;;;0.60;0.60;;;;;;;11.38;72.04;100234.84;5071619;28;20212;-63
2022/11/26 09:37:00;;;;;;;0.60;0.60;;;;;;;11.50;70.70;100242.28;5071219;28;20214;-62
2022/11/26 09:39:27;;;;;;;0.60;0.60;;;;;;;11.41;68.34;100216.78;5071272;28;20723;-63
2022/11/26 09:42:00;;;;;;;0.50;0.50;;;;;;;11.54;68.96;100236.22;5071282;28;20668;-63
2022/11/26 09:44:44;;;;;;;0.60;0.60;;;;;;;11.59;69.98;100233.56;5071134;28;20604;-63
2022/11/26 09:47:15;;;;;;;0.50;0.50;;;;;;;11.64;69.92;100230.88;5070854;28;20265;-63
2022/11/26 09:49:59;;;;;;;1.33;1.27;;;;;;;11.70;68.02;100230.75;5071176;28;20672;-63
2022/11/26 09:52:36;;;;;;;1.63;1.63;;;;;;;11.73;68.10;100225.59;5071142;28;20202;-63
2022/11/26 09:55:14;;;;;;;0.47;0.47;;;;;;;11.77;69.56;100215.19;5070241;28;20629;-63
2022/11/26 09:57:43;;;;;;;0.50;0.50;;;;;;;11.86;68.17;100211.56;5070858;28;20195;-63
2022/11/26 10:00:23;;;;;;;2.03;1.23;;;;;;;11.89;66.98;100206.41;5070254;28;20591;-63
2022/11/26 10:02:53;;;;;;;0.50;0.50;;;;;;;11.93;66.20;100208.00;5070988;28;20203;-63
2022/11/26 10:05:22;;;;;;;0.50;0.50;;;;;;;11.94;66.02;100204.56;5070687;28;20199;-63
2022/11/26 10:08:02;;;;;;;0.60;0.60;;;;;;;11.98;65.63;100201.03;5071066;28;20611;-63
2022/11/26 10:10:37;;;;;;;0.50;0.50;;;;;;;12.00;66.84;100194.97;5070993;28;20200;-63
2022/11/26 10:13:13;;;;;;;0.60;0.60;;;;;;;12.03;67.74;100183.78;5070673;28;20281;-63
2022/11/26 10:15:50;;;;;;;0.60;0.60;;;;;;;12.26;68.49;100189.22;5069843;28;20202;-63
2022/11/26 10:18:28;;;;;;;0.50;0.50;;;;;;;12.31;67.44;100189.13;5070764;28;20661;-63
2022/11/26 10:21:15;;;;;;;0.60;0.60;;;;;;;12.40;65.82;100189.75;5070143;28;20218;-63
2022/11/26 10:23:48;;;;;;;0.83;0.83;;;;;;;12.54;65.52;100192.78;5065162;28;20735;-63
2022/11/26 10:26:17;;;;;;;1.07;1.07;;;;;;;12.56;64.90;100185.88;5070213;28;20242;-63
2022/11/26 10:28:46;;;;;;;0.50;0.50;;;;;;;12.64;66.98;100180.53;5068702;28;20302;-63
2022/11/26 10:31:20;;;;;;;0.40;0.40;;;;;;;12.66;66.99;100177.94;5069494;28;20212;-63
2022/11/26 10:33:53;;;;;;;1.07;1.07;;;;;;;12.70;65.75;100176.97;5070560;28;20253;-63
2022/11/26 10:36:25;;;;;;;1.07;1.07;;;;;;;12.73;66.10;100180.28;5066693;28;20200;-63
2022/11/26 10:38:55;;;;;;;0.60;0.60;;;;;;;12.73;64.28;100171.75;5070116;28;20576;-63
2022/11/26 10:41:25;;;;;;;0.50;0.50;;;;;;;12.79;64.03;100163.84;5069109;28;20585;-64
2022/11/26 10:43:52;;;;;;;0.60;0.60;;;;;;;12.83;63.50;100173.16;5069642;28;20587;-64
2022/11/26 10:46:36;;;;;;;0.70;0.70;;;;;;;12.81;63.37;100169.78;5067698;28;20203;-63
2022/11/26 10:49:19;;;;;;;0.47;0.47;;;;;;;12.85;63.26;100161.13;5070302;28;20204;-63
2022/11/26 10:51:48;;;;;;;0.47;0.47;;;;;;;12.95;63.30;100160.84;5066901;28;20227;-63
2022/11/26 10:54:27;;;;;;;0.50;0.50;;;;;;;12.94;61.30;100155.72;5069351;28;20208;-63
2022/11/26 10:56:56;;;;;;;0.60;0.60;;;;;;;12.97;61.98;100155.63;5067861;28;20576;-64
2022/11/26 10:59:27;;;;;;;0.60;0.60;;;;;;;12.98;61.46;100162.47;5070274;28;20215;-63
2022/11/26 11:02:00;;;;;;;0.57;0.57;;;;;;;12.99;60.17;100156.41;5070433;28;20269;-63
2022/11/26 11:04:30;;;;;;;0.60;0.60;;;;;;;13.04;60.49;100152.84;5069033;28;20257;-63
2022/11/26 11:06:57;;;;;;;0.63;0.63;;;;;;;13.04;58.89;100158.00;5070457;28;20356;-64
2022/11/26 11:09:30;;;;;;;0.60;0.60;;;;;;;12.96;59.10;100159.91;5070095;28;20204;-63
2022/11/26 11:12:17;;;;;;;0.40;0.40;;;;;;;12.96;58.69;100159.06;5070415;28;20196;-64
2022/11/26 11:14:45;;;;;;;0.50;0.50;;;;;;;13.01;58.64;100152.09;5068339;28;20203;-64
2022/11/26 11:17:29;;;;;;;0.60;0.60;;;;;;;12.98;57.35;100163.31;5070264;28;20291;-63
2022/11/26 11:19:57;;;;;;;0.63;0.63;;;;;;;12.97;57.08;100166.75;5066365;28;20695;-63
2022/11/26 11:22:24;;;;;;;1.20;1.20;;;;;;;12.98;58.24;100154.75;5070122;28;20200;-64
2022/11/26 11:24:53;;;;;;;0.40;0.40;;;;;;;13.06;59.03;100155.38;5069796;28;20203;-64
2022/11/26 11:27:25;;;;;;;0.40;0.40;;;;;;;13.17;57.45;100158.53;5072811;28;21531;-64
2022/11/26 11:29:52;;;;;;;0.77;0.77;;;;;;;13.23;57.62;100152.34;5073606;28;20680;-63
2022/11/26 11:32:35;;;;;;;0.60;0.60;;;;;;;13.28;56.79;100156.47;5074165;28;20687;-63
2022/11/26 11:35:20;;;;;;;0.53;0.53;;;;;;;13.21;55.24;100152.41;5073720;28;20195;-63
2022/11/26 11:37:48;;;;;;;0.60;0.60;;;;;;;13.25;55.47;100151.41;5073100;28;20200;-63
2022/11/26 11:40:23;;;;;;;0.90;0.90;;;;;;;13.27;54.66;100157.38;5074133;28;20273;-63
2022/11/26 11:42:52;;;;;;;2.07;0.80;;;;;;;13.30;54.88;100154.72;5073101;28;20195;-63
2022/11/26 11:45:26;;;;;;;0.40;0.40;;;;;;;13.37;55.47;100153.66;5074074;28;20265;-63